Time;durP1;ratioP1;P1;durP2;ratioP2;P2;SDS_P1;SDS_P2;PMS_P1;PMS_P2;Temp;Humidity;BMP_temperature;BMP_pressure;BME280_temperature;BME280_humidity;BME280_pressure;Samples;Min_cycle;Max_cycle;Signal;HPM_P1;HPM_P2
2021/12/08 00:00:40;;;;;;;;;;;2.80;99.90;;;;;;5046619;28;19925;-76
2021/12/08 00:03:08;;;;;;;;;;;2.70;99.90;;;;;;5049681;28;20256;-75
2021/12/08 00:05:36;;;;;;;;;;;2.70;99.90;;;;;;5046218;28;19921;-75
2021/12/08 00:08:05;;;;;;;;;;;2.70;99.90;;;;;;5043255;28;19946;-75
2021/12/08 00:13:05;;;;;;;;;;;2.70;99.90;;;;;;5045085;28;19980;-75
2021/12/08 00:15:38;;;;;;;;;;;2.60;99.90;;;;;;5033766;28;19927;-75
2021/12/08 00:18:06;;;;;;;;;;;2.60;99.90;;;;;;5046873;28;20315;-75
2021/12/08 00:20:33;;;;;;;;;;;2.50;99.90;;;;;;5050109;28;19935;-75
2021/12/08 00:23:01;;;;;;;;;;;2.40;99.90;;;;;;5049335;28;19921;-75
2021/12/08 00:25:28;;;;;;;;;;;2.30;99.90;;;;;;5046626;28;19931;-75
2021/12/08 00:27:55;;;;;;;;;;;2.30;99.90;;;;;;5047868;28;19935;-75
2021/12/08 00:30:22;;;;;;;;;;;2.30;99.90;;;;;;5048698;28;19924;-76
2021/12/08 00:32:51;;;;;;;;;;;2.30;99.90;;;;;;5053290;28;19927;-75
2021/12/08 00:35:18;;;;;;;;;;;2.30;99.90;;;;;;5049395;28;19934;-76
2021/12/08 00:37:45;;;;;;;;;;;2.30;99.90;;;;;;5049442;28;20256;-75
2021/12/08 00:40:13;;;;;;;;;;;2.20;99.90;;;;;;5048220;28;19950;-76
2021/12/08 00:42:42;;;;;;;;;;;2.20;99.90;;;;;;5048406;28;21329;-75
2021/12/08 00:45:10;;;;;;;;;;;2.20;99.90;;;;;;5048235;28;20019;-76
2021/12/08 00:47:37;;;;;;;;;;;2.20;99.90;;;;;;5048243;28;20561;-76
2021/12/08 00:50:04;;;;;;;;;;;2.20;99.90;;;;;;5049340;28;20347;-76
2021/12/08 00:52:34;;;;;;;;;;;2.20;99.90;;;;;;5048398;28;19938;-76
2021/12/08 00:55:02;;;;;;;;;;;2.20;99.90;;;;;;5049144;28;19924;-76
2021/12/08 00:57:29;;;;;;;;;;;2.20;99.90;;;;;;5043407;28;19933;-76
2021/12/08 00:59:56;;;;;;;;;;;2.10;99.90;;;;;;5049235;28;20000;-76
2021/12/08 01:02:25;;;;;;;;;;;2.10;99.90;;;;;;5048370;28;20302;-75
2021/12/08 01:04:51;;;;;;;;;;;2.10;99.90;;;;;;5047904;28;19935;-77
2021/12/08 01:07:18;;;;;;;;;;;2.00;99.90;;;;;;5049177;28;20227;-76
2021/12/08 01:09:46;;;;;;;;;;;2.00;99.90;;;;;;5048870;28;20024;-76
2021/12/08 01:12:13;;;;;;;;;;;2.00;99.90;;;;;;5048323;28;20012;-76
2021/12/08 01:14:40;;;;;;;;;;;2.00;99.90;;;;;;5047146;28;20003;-76
2021/12/08 01:17:09;;;;;;;;;;;2.00;99.90;;;;;;5047916;28;19931;-79
2021/12/08 01:19:36;;;;;;;;;;;2.10;99.90;;;;;;5056132;28;20353;-79
2021/12/08 01:22:03;;;;;;;;;;;2.10;99.90;;;;;;5048272;28;20028;-79
2021/12/08 01:24:31;;;;;;;;;;;2.10;99.90;;;;;;5047417;28;19925;-79
2021/12/08 01:26:59;;;;;;;;;;;2.10;99.90;;;;;;5047267;28;20613;-75
2021/12/08 01:29:25;;;;;;;;;;;2.20;99.90;;;;;;5046152;28;20008;-78
2021/12/08 01:31:52;;;;;;;;;;;2.20;99.90;;;;;;5038064;28;19967;-77
2021/12/08 01:34:19;;;;;;;;;;;2.20;99.90;;;;;;5046542;28;20379;-77
2021/12/08 01:36:48;;;;;;;;;;;2.20;99.90;;;;;;5046860;28;19929;-76
2021/12/08 01:39:15;;;;;;;;;;;2.30;99.90;;;;;;5048828;28;20024;-77
2021/12/08 01:41:41;;;;;;;;;;;2.30;99.90;;;;;;5046148;28;20172;-77
2021/12/08 01:46:53;;;;;;;;;;;2.30;99.90;;;;;;5051767;28;19966;-77
2021/12/08 01:49:21;;;;;;;;;;;2.20;99.90;;;;;;5050055;28;20387;-78
2021/12/08 01:51:48;;;;;;;;;;;2.20;99.90;;;;;;5048739;28;19951;-78
2021/12/08 01:54:15;;;;;;;;;;;2.10;99.90;;;;;;5048266;28;20024;-78
2021/12/08 01:56:42;;;;;;;;;;;2.00;99.90;;;;;;5044730;28;19935;-77
2021/12/08 01:59:09;;;;;;;;;;;2.00;99.90;;;;;;5043997;28;19924;-77
2021/12/08 02:01:40;;;;;;;;;;;2.00;99.90;;;;;;5045797;28;19933;-77
2021/12/08 02:04:07;;;;;;;;;;;1.90;99.90;;;;;;5036745;28;19925;-78
2021/12/08 02:06:36;;;;;;;;;;;1.90;99.90;;;;;;5039936;28;20285;-78
2021/12/08 02:09:04;;;;;;;;;;;1.90;99.90;;;;;;5046909;28;20317;-78
2021/12/08 02:11:37;;;;;;;;;;;1.80;99.90;;;;;;5047338;28;19936;-77
2021/12/08 02:14:03;;;;;;;;;;;1.80;99.90;;;;;;5062117;28;20016;-78
2021/12/08 02:16:33;;;;;;;;;;;1.80;99.90;;;;;;5047943;28;19925;-78
2021/12/08 02:19:01;;;;;;;;;;;1.80;99.90;;;;;;5046905;28;19931;-78
2021/12/08 02:21:40;;;;;;;;;;;1.80;99.90;;;;;;5048264;28;20017;-78
2021/12/08 02:24:10;;;;;;;;;;;1.80;99.90;;;;;;5058053;28;20379;-78
2021/12/08 02:26:37;;;;;;;;;;;1.80;99.90;;;;;;5046745;28;20022;-78
2021/12/08 02:29:10;;;;;;;;;;;1.80;99.90;;;;;;5053821;28;19992;-77
2021/12/08 02:31:52;;;;;;;;;;;1.80;99.90;;;;;;5070691;28;19940;-77
2021/12/08 02:48:15;;;;;;;;;;;1.90;99.90;;;;;;5051321;28;19925;-76
2021/12/08 02:50:42;;;;;;;;;;;1.90;99.90;;;;;;5047735;28;19945;-76
2021/12/08 02:53:10;;;;;;;;;;;1.90;99.90;;;;;;5048421;28;22102;-75
2021/12/08 02:55:37;;;;;;;;;;;1.90;99.90;;;;;;5039524;28;19926;-76
2021/12/08 02:58:04;;;;;;;;;;;1.90;99.90;;;;;;5045168;28;19936;-76
2021/12/08 03:00:34;;;;;;;;;;;1.90;99.90;;;;;;5046438;28;20332;-76
2021/12/08 03:03:02;;;;;;;;;;;1.90;99.90;;;;;;5033294;28;20004;-76
2021/12/08 03:05:29;;;;;;;;;;;1.90;99.90;;;;;;5043739;28;19960;-76
2021/12/08 03:07:58;;;;;;;;;;;1.90;99.90;;;;;;5045007;28;20130;-76
2021/12/08 03:10:30;;;;;;;;;;;1.90;99.90;;;;;;5047323;28;19925;-76
2021/12/08 03:12:57;;;;;;;;;;;1.90;99.90;;;;;;5041917;28;20459;-76
2021/12/08 03:15:26;;;;;;;;;;;2.00;99.90;;;;;;5047434;28;19925;-76
2021/12/08 03:17:53;;;;;;;;;;;2.00;99.90;;;;;;5041097;28;19976;-76
2021/12/08 03:20:26;;;;;;;;;;;2.00;99.90;;;;;;5046312;28;19931;-75
2021/12/08 03:22:59;;;;;;;;;;;2.00;99.90;;;;;;5044630;28;20245;-76
2021/12/08 03:25:35;;;;;;;;;;;2.00;99.90;;;;;;5045928;28;19975;-76
2021/12/08 03:28:12;;;;;;;;;;;2.00;99.90;;;;;;5046548;28;19929;-76
2021/12/08 03:30:52;;;;;;;;;;;2.10;99.90;;;;;;5054742;28;21660;-76
2021/12/08 03:33:18;;;;;;;;;;;2.10;99.90;;;;;;5046116;28;19932;-76
2021/12/08 03:35:45;;;;;;;;;;;2.10;99.90;;;;;;5047308;28;19925;-76
2021/12/08 03:38:12;;;;;;;;;;;2.20;99.90;;;;;;5044091;28;19925;-75
2021/12/08 03:40:39;;;;;;;;;;;2.20;99.90;;;;;;5046904;28;20012;-76
2021/12/08 03:43:05;;;;;;;;;;;2.30;99.90;;;;;;5045518;28;20345;-76
2021/12/08 03:45:35;;;;;;;;;;;2.30;99.90;;;;;;5045552;28;19924;-76
2021/12/08 03:48:04;;;;;;;;;;;2.30;99.90;;;;;;5041479;28;20004;-76
2021/12/08 03:50:32;;;;;;;;;;;2.40;99.90;;;;;;5035473;28;19957;-76
2021/12/08 03:52:59;;;;;;;;;;;2.40;99.90;;;;;;5048428;28;20407;-74
2021/12/08 03:55:26;;;;;;;;;;;2.40;99.90;;;;;;5050158;28;20015;-74
2021/12/08 03:57:53;;;;;;;;;;;2.40;99.90;;;;;;5049012;28;19976;-74
2021/12/08 04:00:20;;;;;;;;;;;2.40;99.90;;;;;;5050428;28;19932;-74
2021/12/08 04:02:47;;;;;;;;;;;2.50;99.90;;;;;;5048263;28;19933;-74
2021/12/08 04:05:19;;;;;;;;;;;2.50;99.90;;;;;;5049724;28;19991;-74
2021/12/08 04:07:51;;;;;;;;;;;2.50;99.90;;;;;;5048820;28;20072;-75
2021/12/08 04:10:20;;;;;;;;;;;2.50;99.90;;;;;;5052763;28;20011;-75
2021/12/08 04:12:49;;;;;;;;;;;2.60;99.90;;;;;;5049511;28;19925;-75
2021/12/08 04:15:16;;;;;;;;;;;2.60;99.90;;;;;;5049735;28;20008;-75
2021/12/08 04:17:48;;;;;;;;;;;2.60;99.90;;;;;;5049771;28;19924;-75
2021/12/08 04:20:17;;;;;;;;;;;2.60;99.90;;;;;;5049312;28;20478;-75
2021/12/08 04:22:50;;;;;;;;;;;2.60;99.90;;;;;;5051370;28;20040;-75
2021/12/08 04:25:18;;;;;;;;;;;2.60;99.90;;;;;;5064899;28;20015;-75
2021/12/08 04:27:47;;;;;;;;;;;2.60;99.90;;;;;;5048695;28;19924;-75
2021/12/08 04:30:16;;;;;;;;;;;2.70;99.90;;;;;;5049084;28;19924;-74
2021/12/08 04:32:43;;;;;;;;;;;2.70;99.90;;;;;;5050537;28;19925;-75
2021/12/08 04:35:11;;;;;;;;;;;2.70;99.90;;;;;;5049632;28;19931;-75
2021/12/08 04:37:40;;;;;;;;;;;2.70;99.90;;;;;;5048746;28;19964;-75
2021/12/08 04:45:43;;;;;;;;;;;2.70;99.90;;;;;;5029775;28;19970;-74
2021/12/08 04:48:21;;;;;;;;;;;2.70;99.90;;;;;;5050009;28;20476;-74
2021/12/08 04:51:16;;;;;;;;;;;2.70;99.90;;;;;;5049689;28;20449;-74
2021/12/08 05:00:13;;;;;;;;;;;2.80;99.90;;;;;;5045134;28;19925;-74
2021/12/08 05:02:31;;;;;;;;;;;2.90;99.90;;;;;;5046487;28;20366;-75
2021/12/08 05:05:19;;;;;;;;;;;2.90;99.90;;;;;;5046029;28;19968;-74
2021/12/08 05:08:11;;;;;;;;;;;3.00;99.90;;;;;;5046411;28;19932;-75
2021/12/08 05:10:39;;;;;;;;;;;3.00;99.90;;;;;;5048200;28;19964;-74
2021/12/08 05:13:07;;;;;;;;;;;3.00;99.90;;;;;;5046960;28;20012;-75
2021/12/08 05:15:39;;;;;;;;;;;3.00;99.90;;;;;;5040778;28;20280;-75
2021/12/08 05:18:10;;;;;;;;;;;3.00;99.90;;;;;;5040325;28;19924;-75
2021/12/08 05:20:40;;;;;;;;;;;3.00;99.90;;;;;;5048686;28;19929;-75
2021/12/08 05:23:10;;;;;;;;;;;3.10;99.90;;;;;;5046262;28;20067;-75
2021/12/08 05:25:38;;;;;;;;;;;3.10;99.90;;;;;;5048995;28;20381;-75
2021/12/08 05:28:12;;;;;;;;;;;3.10;99.90;;;;;;5047277;28;19996;-75
2021/12/08 05:30:43;;;;;;;;;;;3.10;99.90;;;;;;5045253;28;19936;-75
2021/12/08 05:33:10;;;;;;;;;;;3.20;99.90;;;;;;5041429;28;19986;-75
2021/12/08 05:35:38;;;;;;;;;;;3.20;99.90;;;;;;5047886;28;20015;-74
2021/12/08 05:38:05;;;;;;;;;;;3.20;99.90;;;;;;5043445;28;19936;-75
2021/12/08 05:40:37;;;;;;;;;;;3.20;99.90;;;;;;5048108;28;19924;-74
2021/12/08 05:43:05;;;;;;;;;;;3.10;99.90;;;;;;5050687;28;19924;-75
2021/12/08 05:45:35;;;;;;;;;;;3.20;99.90;;;;;;5045002;28;19933;-74
2021/12/08 05:48:06;;;;;;;;;;;3.20;99.90;;;;;;5049211;28;19975;-74
2021/12/08 05:50:39;;;;;;;;;;;3.20;99.90;;;;;;5044657;28;19982;-75
2021/12/08 05:53:06;;;;;;;;;;;3.20;99.90;;;;;;5049201;28;19925;-74
2021/12/08 05:55:33;;;;;;;;;;;3.20;99.90;;;;;;5046315;28;19932;-74
2021/12/08 05:58:00;;;;;;;;;;;3.20;99.90;;;;;;5049077;28;19927;-74
2021/12/08 06:00:32;;;;;;;;;;;3.20;99.90;;;;;;5045967;28;20132;-74
2021/12/08 06:02:59;;;;;;;;;;;3.20;99.90;;;;;;5047694;28;19976;-74
2021/12/08 06:05:28;;;;;;;;;;;3.20;99.90;;;;;;5045238;28;19971;-75
2021/12/08 06:07:54;;;;;;;;;;;3.30;99.90;;;;;;5043839;28;20027;-74
2021/12/08 06:10:23;;;;;;;;;;;3.30;99.90;;;;;;5046347;28;19971;-74
2021/12/08 06:12:50;;;;;;;;;;;3.30;99.90;;;;;;5039935;28;20284;-75
2021/12/08 06:15:17;;;;;;;;;;;3.30;99.90;;;;;;5055633;28;19931;-75
2021/12/08 06:17:44;;;;;;;;;;;3.30;99.90;;;;;;5059323;28;19947;-75
2021/12/08 06:20:11;;;;;;;;;;;3.30;99.90;;;;;;5047688;28;19924;-74
2021/12/08 06:22:39;;;;;;;;;;;3.30;99.90;;;;;;5044510;28;20007;-74
2021/12/08 06:25:07;;;;;;;;;;;3.40;99.90;;;;;;5046107;28;19928;-74
2021/12/08 06:27:34;;;;;;;;;;;3.30;99.90;;;;;;5052020;28;19925;-75
2021/12/08 06:30:00;;;;;;;;;;;3.40;99.90;;;;;;5046824;28;19968;-75
2021/12/08 06:32:27;;;;;;;;;;;3.40;99.90;;;;;;5046616;28;19925;-75
2021/12/08 06:34:55;;;;;;;;;;;3.30;99.90;;;;;;5046417;28;19999;-75
2021/12/08 06:37:25;;;;;;;;;;;3.30;99.90;;;;;;5046418;28;19932;-75
2021/12/08 06:40:06;;;;;;;;;;;3.20;99.90;;;;;;5044780;28;20041;-75
2021/12/08 06:42:37;;;;;;;;;;;3.20;99.90;;;;;;5037262;28;20655;-75
2021/12/08 06:45:09;;;;;;;;;;;3.20;99.90;;;;;;5044102;28;19956;-74
2021/12/08 06:47:38;;;;;;;;;;;3.20;99.90;;;;;;5041420;28;19933;-75
2021/12/08 06:50:07;;;;;;;;;;;3.20;99.90;;;;;;5042184;28;19972;-75
2021/12/08 06:52:37;;;;;;;;;;;3.30;99.90;;;;;;5039990;28;20021;-75
2021/12/08 06:55:04;;;;;;;;;;;3.30;99.90;;;;;;5044926;28;20425;-75
2021/12/08 06:57:50;;;;;;;;;;;3.30;99.90;;;;;;5044917;28;19925;-75
2021/12/08 07:00:32;;;;;;;;;;;3.30;99.90;;;;;;5046560;28;20360;-75
2021/12/08 07:03:21;;;;;;;;;;;3.40;99.90;;;;;;5040596;28;19925;-75
2021/12/08 07:08:25;;;;;;;;;;;3.30;99.90;;;;;;5038587;28;20066;-75
2021/12/08 07:10:56;;;;;;;;;;;3.30;99.90;;;;;;5043215;28;20007;-75
2021/12/08 07:13:28;;;;;;;;;;;3.40;99.90;;;;;;5046281;28;19925;-75
2021/12/08 07:16:17;;;;;;;;;;;3.30;99.90;;;;;;5045445;28;19940;-75
2021/12/08 07:18:54;;;;;;;;;;;3.30;99.90;;;;;;5031749;28;19925;-75
2021/12/08 07:21:23;;;;;;;;;;;3.30;99.90;;;;;;5045143;28;20394;-75
2021/12/08 07:23:59;;;;;;;;;;;3.30;99.90;;;;;;5041417;28;19933;-75
2021/12/08 07:26:28;;;;;;;;;;;3.40;99.90;;;;;;5045073;28;19979;-75
2021/12/08 07:28:56;;;;;;;;;;;3.40;99.90;;;;;;5051008;28;19975;-74
2021/12/08 07:31:31;;;;;;;;;;;3.40;99.90;;;;;;5053770;28;19935;-75
2021/12/08 07:34:04;;;;;;;;;;;3.40;99.90;;;;;;5049525;28;19924;-75
2021/12/08 07:36:32;;;;;;;;;;;3.40;99.90;;;;;;5042757;28;19963;-75
2021/12/08 07:39:06;;;;;;;;;;;3.40;99.90;;;;;;5049383;28;20387;-75
2021/12/08 07:41:34;;;;;;;;;;;3.30;99.90;;;;;;5049061;28;19939;-75
2021/12/08 07:44:04;;;;;;;;;;;3.30;99.90;;;;;;5049879;28;20401;-75
2021/12/08 07:46:33;;;;;;;;;;;3.40;99.90;;;;;;5051877;28;20357;-75
2021/12/08 07:49:10;;;;;;;;;;;3.30;99.90;;;;;;5046936;28;19963;-75
2021/12/08 07:51:57;;;;;;;;;;;3.30;99.90;;;;;;5059555;28;19983;-75
2021/12/08 07:54:24;;;;;;;;;;;3.20;99.90;;;;;;5043614;28;19929;-75
2021/12/08 07:56:54;;;;;;;;;;;3.20;99.90;;;;;;5050110;28;19971;-75
2021/12/08 07:59:25;;;;;;;;;;;3.10;99.90;;;;;;5048049;28;19932;-75
2021/12/08 08:01:55;;;;;;;;;;;3.00;99.90;;;;;;5050632;28;20335;-75
2021/12/08 08:04:23;;;;;;;;;;;3.00;99.90;;;;;;5048402;28;19931;-75
2021/12/08 08:06:54;;;;;;;;;;;2.90;99.90;;;;;;5046080;28;19924;-75
2021/12/08 08:09:23;;;;;;;;;;;2.90;99.90;;;;;;5046932;28;19925;-75
2021/12/08 08:11:56;;;;;;;;;;;2.90;99.90;;;;;;5047168;28;20429;-75
2021/12/08 08:14:43;;;;;;;;;;;2.90;99.90;;;;;;5049703;28;20372;-76
2021/12/08 08:17:14;;;;;;;;;;;2.90;99.90;;;;;;5047205;28;19947;-76
2021/12/08 08:19:45;;;;;;;;;;;3.00;99.90;;;;;;5058656;28;19925;-75
2021/12/08 08:22:14;;;;;;;;;;;3.00;99.90;;;;;;5048354;28;19938;-75
2021/12/08 08:24:41;;;;;;;;;;;3.00;99.90;;;;;;5049519;28;19968;-75
2021/12/08 08:27:09;;;;;;;;;;;3.00;99.90;;;;;;5041701;28;19925;-76
2021/12/08 08:29:36;;;;;;;;;;;3.00;99.90;;;;;;5047456;28;19933;-75
2021/12/08 08:32:06;;;;;;;;;;;3.00;99.90;;;;;;5049340;28;19966;-76
2021/12/08 08:34:37;;;;;;;;;;;3.00;99.90;;;;;;5043007;28;19929;-76
2021/12/08 08:37:05;;;;;;;;;;;3.10;99.90;;;;;;5048253;28;19991;-76
2021/12/08 08:39:34;;;;;;;;;;;3.10;99.90;;;;;;5046830;28;20012;-76
2021/12/08 08:42:05;;;;;;;;;;;3.20;99.90;;;;;;5043316;28;20386;-76
2021/12/08 08:44:38;;;;;;;;;;;3.20;99.90;;;;;;5040688;28;19925;-76
2021/12/08 08:47:08;;;;;;;;;;;3.20;99.90;;;;;;5047200;28;19925;-76
2021/12/08 08:49:36;;;;;;;;;;;3.30;99.90;;;;;;5039460;28;19929;-76
2021/12/08 08:52:09;;;;;;;;;;;3.30;99.90;;;;;;5047942;28;19932;-75
2021/12/08 08:54:38;;;;;;;;;;;3.50;99.90;;;;;;5045614;28;20184;-76
2021/12/08 08:57:08;;;;;;;;;;;3.50;99.90;;;;;;5045715;28;19925;-76
2021/12/08 08:59:40;;;;;;;;;;;3.50;99.90;;;;;;5049393;28;20516;-76
2021/12/08 09:02:09;;;;;;;;;;;3.60;99.90;;;;;;5047176;28;20405;-76
2021/12/08 09:04:39;;;;;;;;;;;3.60;99.90;;;;;;5046093;28;20286;-76
2021/12/08 09:07:13;;;;;;;;;;;3.70;99.90;;;;;;5046288;28;19931;-75
2021/12/08 09:09:50;;;;;;;;;;;3.80;99.90;;;;;;5042169;28;20466;-75
2021/12/08 09:12:20;;;;;;;;;;;3.90;99.90;;;;;;5045712;28;19984;-75
2021/12/08 09:14:49;;;;;;;;;;;3.90;99.90;;;;;;5047554;28;19986;-75
2021/12/08 09:17:21;;;;;;;;;;;4.00;99.90;;;;;;5054168;28;19925;-75
2021/12/08 09:20:06;;;;;;;;;;;4.00;99.90;;;;;;5048066;28;20004;-75
2021/12/08 09:22:41;;;;;;;;;;;4.10;99.90;;;;;;5048478;28;19948;-75
2021/12/08 09:25:12;;;;;;;;;;;4.10;99.90;;;;;;5061701;28;20019;-75
2021/12/08 09:27:45;;;;;;;;;;;4.10;99.90;;;;;;5045761;28;19925;-75
2021/12/08 09:30:14;;;;;;;;;;;4.10;99.90;;;;;;5047608;28;19925;-75
2021/12/08 09:32:52;;;;;;;;;;;4.10;99.90;;;;;;5044403;28;20007;-75
2021/12/08 09:35:22;;;;;;;;;;;4.10;99.90;;;;;;5045141;28;20398;-75
2021/12/08 09:38:11;;;;;;;;;;;4.10;99.90;;;;;;5046533;28;20011;-75
2021/12/08 09:40:44;;;;;;;;;;;4.20;99.90;;;;;;5047020;28;19968;-75
2021/12/08 09:43:15;;;;;;;;;;;4.30;99.90;;;;;;5052424;28;19931;-75
2021/12/08 09:45:45;;;;;;;;;;;4.30;99.90;;;;;;5047417;28;20387;-75
2021/12/08 09:48:13;;;;;;;;;;;4.40;99.90;;;;;;5048080;28;19925;-75
2021/12/08 09:50:40;;;;;;;;;;;4.40;99.90;;;;;;5047703;28;20004;-75
2021/12/08 09:53:07;;;;;;;;;;;4.40;99.90;;;;;;5046517;28;19925;-75
2021/12/08 09:55:36;;;;;;;;;;;4.40;99.90;;;;;;5052292;28;19933;-75
2021/12/08 09:58:04;;;;;;;;;;;4.50;99.90;;;;;;5041571;28;19925;-75
2021/12/08 10:00:33;;;;;;;;;;;4.50;99.90;;;;;;5046499;28;19925;-76
2021/12/08 10:03:03;;;;;;;;;;;4.50;99.90;;;;;;5041979;28;19924;-75
2021/12/08 10:05:31;;;;;;;;;;;4.60;99.90;;;;;;5044197;28;20016;-76
2021/12/08 10:07:58;;;;;;;;;;;4.70;99.90;;;;;;5045729;28;19975;-75
2021/12/08 10:10:26;;;;;;;;;;;4.80;99.90;;;;;;5050168;28;19925;-75
2021/12/08 10:12:52;;;;;;;;;;;4.80;99.90;;;;;;5037468;28;19925;-75
2021/12/08 10:15:21;;;;;;;;;;;4.80;99.90;;;;;;5047400;28;20004;-76
2021/12/08 10:17:48;;;;;;;;;;;4.90;99.90;;;;;;5045592;28;19925;-75
2021/12/08 10:20:17;;;;;;;;;;;4.90;99.90;;;;;;5043201;28;20220;-75
2021/12/08 10:22:45;;;;;;;;;;;4.80;99.90;;;;;;5045411;28;19929;-75
2021/12/08 10:25:17;;;;;;;;;;;4.80;99.90;;;;;;5053302;28;19975;-76
2021/12/08 10:28:25;;;;;;;;;;;4.80;99.90;;;;;;5049448;28;19990;-76
2021/12/08 10:30:54;;;;;;;;;;;4.80;99.90;;;;;;5047492;28;20015;-76
2021/12/08 10:36:42;;;;;;;;;;;4.80;99.90;;;;;;5046862;28;20359;-76
2021/12/08 10:39:15;;;;;;;;;;;4.80;99.90;;;;;;5043358;28;20397;-76
2021/12/08 10:42:13;;;;;;;;;;;4.80;99.90;;;;;;5030373;28;19937;-76
2021/12/08 10:44:48;;;;;;;;;;;4.90;99.90;;;;;;5015859;28;19936;-76
2021/12/08 10:47:24;;;;;;;;;;;4.90;99.90;;;;;;5014105;28;19925;-76
2021/12/08 10:55:15;;;;;;;;;;;5.10;99.90;;;;;;5017487;28;20068;-76
2021/12/08 10:57:44;;;;;;;;;;;5.20;99.90;;;;;;5009285;28;20359;-76
2021/12/08 11:00:18;;;;;;;;;;;5.20;99.90;;;;;;5009920;28;20498;-76
2021/12/08 11:02:55;;;;;;;;;;;5.30;99.90;;;;;;5009874;28;19929;-76
2021/12/08 11:05:24;;;;;;;;;;;5.40;99.90;;;;;;5018534;28;19932;-76
2021/12/08 11:07:57;;;;;;;;;;;5.40;99.90;;;;;;4990654;28;19937;-76
2021/12/08 11:10:23;;;;;;;;;;;5.40;99.90;;;;;;5020241;28;20419;-76
2021/12/08 11:12:50;;;;;;;;;;;5.40;99.90;;;;;;5016789;28;19956;-76
2021/12/08 11:15:20;;;;;;;;;;;5.50;99.90;;;;;;5012915;28;19982;-76
2021/12/08 11:17:48;;;;;;;;;;;5.40;99.90;;;;;;5009500;28;19976;-76
2021/12/08 11:20:15;;;;;;;;;;;5.30;99.90;;;;;;5014823;28;19975;-76
2021/12/08 11:22:44;;;;;;;;;;;5.20;99.90;;;;;;5029267;28;19929;-76
2021/12/08 11:25:22;;;;;;;;;;;5.10;99.90;;;;;;5041173;28;20260;-76
2021/12/08 11:27:49;;;;;;;;;;;5.00;99.90;;;;;;5048930;28;20047;-76
2021/12/08 11:30:21;;;;;;;;;;;5.00;99.90;;;;;;5050073;28;19975;-76
2021/12/08 11:32:48;;;;;;;;;;;5.00;99.90;;;;;;5049464;28;19936;-76
2021/12/08 11:35:32;;;;;;;;;;;5.00;99.90;;;;;;5043326;28;20451;-76
2021/12/08 11:37:59;;;;;;;;;;;5.00;99.90;;;;;;5048954;28;19934;-76
2021/12/08 11:40:26;;;;;;;;;;;5.00;99.90;;;;;;5056113;28;19956;-76
2021/12/08 11:42:53;;;;;;;;;;;5.00;99.90;;;;;;5054230;28;19925;-76
2021/12/08 11:45:22;;;;;;;;;;;5.00;99.90;;;;;;5047787;28;19924;-76
2021/12/08 11:47:48;;;;;;;;;;;5.00;99.90;;;;;;5049121;28;20478;-76
2021/12/08 11:50:22;;;;;;;;;;;5.00;99.90;;;;;;5048621;28;19929;-76
2021/12/08 11:52:53;;;;;;;;;;;5.00;99.90;;;;;;5047912;28;19932;-76
2021/12/08 11:55:20;;;;;;;;;;;5.00;99.90;;;;;;5044298;28;19932;-76
2021/12/08 11:57:51;;;;;;;;;;;5.00;99.90;;;;;;5044425;28;20419;-75
2021/12/08 12:00:23;;;;;;;;;;;5.10;99.90;;;;;;5048505;28;19972;-76
2021/12/08 12:02:57;;;;;;;;;;;5.10;99.90;;;;;;5045636;28;19931;-76
2021/12/08 12:05:47;;;;;;;;;;;5.20;99.90;;;;;;5047821;28;20023;-76
2021/12/08 12:08:15;;;;;;;;;;;5.30;99.90;;;;;;5046160;28;19970;-76
2021/12/08 12:10:42;;;;;;;;;;;5.20;99.90;;;;;;5045986;28;19924;-76
2021/12/08 12:13:10;;;;;;;;;;;5.30;99.90;;;;;;5047932;28;19925;-76
2021/12/08 12:15:44;;;;;;;;;;;5.30;99.90;;;;;;5048981;28;19928;-75
2021/12/08 12:18:11;;;;;;;;;;;5.20;99.90;;;;;;5050045;28;20023;-76
2021/12/08 12:20:39;;;;;;;;;;;5.30;99.90;;;;;;5048800;28;20312;-76
2021/12/08 12:23:12;;;;;;;;;;;5.20;99.90;;;;;;5046543;28;20112;-76
2021/12/08 12:25:39;;;;;;;;;;;5.20;99.90;;;;;;5049137;28;20474;-76
2021/12/08 12:28:14;;;;;;;;;;;5.20;99.90;;;;;;5048931;28;19967;-76
2021/12/08 12:31:04;;;;;;;;;;;5.10;99.90;;;;;;5048767;28;19933;-76
2021/12/08 12:33:38;;;;;;;;;;;5.10;99.90;;;;;;5048221;28;20059;-76
2021/12/08 12:36:16;;;;;;;;;;;5.20;99.90;;;;;;5047533;28;19925;-75
2021/12/08 12:38:42;;;;;;;;;;;5.20;99.90;;;;;;5048731;28;20011;-76
2021/12/08 12:41:22;;;;;;;;;;;5.30;99.90;;;;;;5048458;28;19939;-76
2021/12/08 12:43:50;;;;;;;;;;;5.30;99.90;;;;;;5047738;28;19976;-76
2021/12/08 12:46:19;;;;;;;;;;;5.40;99.90;;;;;;5047476;28;19925;-77
2021/12/08 12:48:52;;;;;;;;;;;5.40;99.90;;;;;;5043951;28;20011;-76
2021/12/08 12:51:21;;;;;;;;;;;5.40;99.90;;;;;;5049559;28;19960;-76
2021/12/08 12:53:56;;;;;;;;;;;5.30;99.90;;;;;;5048390;28;19939;-76
2021/12/08 12:56:27;;;;;;;;;;;5.30;99.90;;;;;;5035298;28;20352;-76
2021/12/08 12:58:55;;;;;;;;;;;5.30;99.90;;;;;;5049347;28;19925;-76
2021/12/08 13:01:27;;;;;;;;;;;5.40;99.90;;;;;;5046652;28;19930;-76
2021/12/08 13:03:58;;;;;;;;;;;5.40;99.90;;;;;;5053195;28;19925;-76
2021/12/08 13:06:43;;;;;;;;;;;5.40;99.90;;;;;;5052124;28;20363;-76
2021/12/08 13:09:29;;;;;;;;;;;5.40;99.90;;;;;;5048508;28;19973;-76
2021/12/08 13:12:25;;;;;;;;;;;5.40;99.90;;;;;;5042477;28;19932;-76
2021/12/08 13:15:23;;;;;;;;;;;5.50;99.90;;;;;;5028162;28;20352;-76
2021/12/08 13:18:04;;;;;;;;;;;5.50;99.90;;;;;;4987062;28;20009;-76
2021/12/08 13:20:39;;;;;;;;;;;5.50;99.90;;;;;;4981905;28;19929;-76
2021/12/08 13:23:07;;;;;;;;;;;5.40;99.90;;;;;;4986039;28;19925;-76
2021/12/08 13:28:14;;;;;;;;;;;5.30;99.90;;;;;;4977391;28;20056;-76
2021/12/08 13:30:47;;;;;;;;;;;5.30;99.90;;;;;;4984498;28;19972;-77
2021/12/08 13:33:20;;;;;;;;;;;5.30;99.90;;;;;;4965319;28;20446;-76
2021/12/08 13:35:47;;;;;;;;;;;5.20;99.90;;;;;;4972618;28;19993;-76
2021/12/08 13:38:14;;;;;;;;;;;5.20;99.90;;;;;;4966265;28;20282;-76
2021/12/08 13:40:54;;;;;;;;;;;5.10;99.90;;;;;;4976086;28;20025;-77
2021/12/08 13:43:41;;;;;;;;;;;5.00;99.90;;;;;;4984185;28;19933;-76
2021/12/08 13:46:09;;;;;;;;;;;5.00;99.90;;;;;;4982699;28;20268;-75
2021/12/08 13:48:36;;;;;;;;;;;4.90;99.90;;;;;;4968192;28;19942;-76
2021/12/08 13:51:18;;;;;;;;;;;4.80;99.90;;;;;;4978195;28;20012;-76
2021/12/08 13:54:06;;;;;;;;;;;4.80;99.90;;;;;;4996327;28;19929;-76
2021/12/08 13:56:47;;;;;;;;;;;4.80;99.90;;;;;;5055492;28;19928;-76
2021/12/08 13:59:35;;;;;;;;;;;4.70;99.90;;;;;;5049876;28;19925;-76
2021/12/08 14:02:24;;;;;;;;;;;4.70;99.90;;;;;;5049031;28;19935;-75
2021/12/08 14:05:03;;;;;;;;;;;4.60;99.90;;;;;;5048551;28;19931;-76
2021/12/08 14:07:36;;;;;;;;;;;4.60;99.90;;;;;;5052416;28;20381;-75
2021/12/08 14:10:10;;;;;;;;;;;4.60;99.90;;;;;;5061415;28;20023;-75
2021/12/08 14:12:49;;;;;;;;;;;4.60;99.90;;;;;;5047975;28;20490;-76
2021/12/08 14:15:36;;;;;;;;;;;4.60;99.90;;;;;;5045067;28;20510;-76
2021/12/08 14:18:18;;;;;;;;;;;4.60;99.90;;;;;;5047985;28;19925;-76
2021/12/08 14:21:05;;;;;;;;;;;4.50;99.90;;;;;;5045938;28;20027;-77
2021/12/08 14:23:40;;;;;;;;;;;4.50;99.90;;;;;;5044794;28;19933;-76
2021/12/08 14:26:09;;;;;;;;;;;4.50;99.90;;;;;;5045418;28;19972;-75
2021/12/08 14:28:39;;;;;;;;;;;4.40;99.90;;;;;;5046589;28;20003;-75
2021/12/08 14:31:08;;;;;;;;;;;4.40;99.90;;;;;;5045495;28;19941;-75
2021/12/08 14:33:34;;;;;;;;;;;4.30;99.90;;;;;;5057946;28;20447;-76
2021/12/08 14:36:07;;;;;;;;;;;4.30;99.90;;;;;;5046287;28;20353;-76
2021/12/08 14:38:35;;;;;;;;;;;4.20;99.90;;;;;;5047490;28;19993;-76
2021/12/08 14:41:17;;;;;;;;;;;4.20;99.90;;;;;;5042723;28;19936;-76
2021/12/08 14:43:44;;;;;;;;;;;4.10;99.90;;;;;;5046196;28;19986;-76
2021/12/08 14:46:15;;;;;;;;;;;4.10;99.90;;;;;;5042164;28;19925;-75
2021/12/08 14:48:53;;;;;;;;;;;4.00;99.90;;;;;;5045879;28;19975;-76
2021/12/08 14:51:24;;;;;;;;;;;4.00;99.90;;;;;;5046022;28;20051;-76
2021/12/08 14:53:54;;;;;;;;;;;4.00;99.90;;;;;;5043405;28;20368;-76
2021/12/08 14:56:23;;;;;;;;;;;3.90;99.90;;;;;;5045066;28;19924;-76
2021/12/08 14:58:55;;;;;;;;;;;3.90;99.90;;;;;;5040188;28;19921;-76
2021/12/08 15:01:21;;;;;;;;;;;3.80;99.90;;;;;;5042416;28;20302;-76
2021/12/08 15:03:48;;;;;;;;;;;3.80;99.90;;;;;;5044574;28;19921;-76
2021/12/08 15:06:22;;;;;;;;;;;3.70;99.90;;;;;;5045543;28;19963;-76
2021/12/08 15:08:49;;;;;;;;;;;3.70;99.90;;;;;;5043009;28;20006;-76
2021/12/08 15:11:20;;;;;;;;;;;3.70;99.90;;;;;;5043471;28;19935;-75
2021/12/08 15:13:48;;;;;;;;;;;3.60;99.90;;;;;;5043355;28;19982;-76
2021/12/08 15:16:20;;;;;;;;;;;3.60;99.90;;;;;;5042955;28;19939;-76
2021/12/08 15:18:53;;;;;;;;;;;3.50;99.90;;;;;;5046085;28;20326;-76
2021/12/08 15:21:25;;;;;;;;;;;3.50;99.90;;;;;;5042986;28;19929;-76
2021/12/08 15:24:01;;;;;;;;;;;3.50;99.90;;;;;;5045609;28;19921;-75
2021/12/08 15:26:28;;;;;;;;;;;3.40;99.90;;;;;;5041664;28;19928;-75
2021/12/08 15:28:55;;;;;;;;;;;3.40;99.90;;;;;;5043445;28;19986;-75
2021/12/08 15:31:29;;;;;;;;;;;3.40;99.90;;;;;;5041916;28;19938;-74
2021/12/08 15:33:56;;;;;;;;;;;3.50;99.90;;;;;;5039178;28;19928;-73
2021/12/08 15:36:25;;;;;;;;;;;3.50;99.90;;;;;;5036947;28;19925;-74
2021/12/08 15:38:52;;;;;;;;;;;3.40;99.90;;;;;;5037772;28;20077;-74